Time;durP1;ratioP1;P1;durP2;ratioP2;P2;SDS_P1;SDS_P2;PMS_P1;PMS_P2;Temp;Humidity;BMP_temperature;BMP_pressure;BME280_temperature;BME280_humidity;BME280_pressure;Samples;Min_cycle;Max_cycle;Signal;HPM_P1;HPM_P2
2023/05/22 00:00:06;;;;;;;;;20.00;15.00;;;;;18.05;56.71;100846.81;5076383;27;45450;-54
2023/05/22 00:02:37;;;;;;;;;19.00;19.00;;;;;18.07;56.49;100844.03;5092645;27;45485;-54
2023/05/22 00:05:06;;;;;;;;;15.67;15.67;;;;;18.05;56.52;100846.81;5097471;27;45520;-51
2023/05/22 00:07:31;;;;;;;;;25.00;22.33;;;;;18.04;56.70;100845.06;5077743;27;48251;-51
2023/05/22 00:09:57;;;;;;;;;17.33;16.00;;;;;18.03;56.60;100839.88;5096860;27;45427;-57
2023/05/22 00:12:22;;;;;;;;;17.67;17.67;;;;;18.02;56.16;100843.44;5095426;27;45452;-56
2023/05/22 00:14:47;;;;;;;;;18.33;15.67;;;;;17.98;56.30;100831.31;5096905;27;45355;-57
2023/05/22 00:17:13;;;;;;;;;18.67;17.67;;;;;17.95;56.55;100831.50;5095938;27;46298;-55
2023/05/22 00:19:39;;;;;;;;;17.33;16.00;;;;;17.92;56.39;100840.53;5096795;27;45466;-53
2023/05/22 00:22:04;;;;;;;;;16.00;15.67;;;;;17.87;56.33;100830.16;5096728;27;45520;-53
2023/05/22 00:24:30;;;;;;;;;16.67;16.67;;;;;17.86;56.30;100832.91;5095846;27;45569;-53
2023/05/22 00:26:56;;;;;;;;;17.00;16.33;;;;;17.83;56.36;100839.28;5095980;27;45410;-55
2023/05/22 00:29:21;;;;;;;;;18.33;17.00;;;;;17.82;56.56;100829.59;5096159;27;45469;-57
2023/05/22 00:31:47;;;;;;;;;31.33;30.33;;;;;17.85;56.80;100832.06;5096254;27;45845;-56
2023/05/22 00:34:12;;;;;;;;;51.67;41.67;;;;;17.84;56.45;100841.00;5077304;27;45612;-53
2023/05/22 00:36:38;;;;;;;;;37.67;35.33;;;;;17.80;56.43;100838.63;5080973;27;46059;-56
2023/05/22 00:39:03;;;;;;;;;31.67;31.67;;;;;17.81;56.64;100833.22;5096562;27;45420;-57
2023/05/22 00:41:32;;;;;;;;;27.67;26.33;;;;;17.80;56.65;100839.47;5095848;27;45494;-54
2023/05/22 00:43:58;;;;;;;;;24.00;24.00;;;;;17.76;56.21;100834.38;5094298;27;45561;-52
2023/05/22 00:46:23;;;;;;;;;20.00;19.00;;;;;17.76;56.58;100840.59;5075866;28;45495;-55
2023/05/22 00:48:49;;;;;;;;;26.33;21.00;;;;;17.76;56.34;100835.25;5081997;27;45543;-54
2023/05/22 00:51:14;;;;;;;;;23.00;22.67;;;;;17.73;56.47;100832.78;5099610;27;45528;-54
2023/05/22 00:53:40;;;;;;;;;19.00;18.67;;;;;17.71;56.28;100826.72;5100018;27;45464;-54
2023/05/22 00:56:06;;;;;;;;;17.00;17.00;;;;;17.71;56.31;100828.53;5099920;27;45952;-53
2023/05/22 00:58:31;;;;;;;;;20.00;18.67;;;;;17.70;56.45;100824.97;5099798;27;45441;-56
2023/05/22 01:00:58;;;;;;;;;15.67;15.67;;;;;17.65;56.50;100819.97;5098925;27;45361;-57
2023/05/22 01:03:27;;;;;;;;;23.67;20.67;;;;;17.60;56.72;100818.53;5100076;27;45458;-54
2023/05/22 01:05:52;;;;;;;;;16.00;16.00;;;;;17.58;56.64;100815.97;5099716;27;45389;-54
2023/05/22 01:08:18;;;;;;;;;17.67;15.33;;;;;17.63;56.60;100813.03;5099542;27;45324;-57
2023/05/22 01:10:44;;;;;;;;;17.67;14.33;;;;;17.65;56.62;100814.66;5099883;27;45467;-55
2023/05/22 01:13:38;;;;;;;;;18.33;17.00;;;;;17.64;56.79;100804.94;5098482;27;45697;-53
2023/05/22 01:16:10;;;;;;;;;16.00;16.00;;;;;17.67;56.25;100810.06;5099663;27;46468;-54
2023/05/22 01:18:41;;;;;;;;;17.33;15.00;;;;;17.66;56.44;100821.66;5099555;27;45385;-55
2023/05/22 01:21:21;;;;;;;;;18.00;17.00;;;;;17.66;56.26;100818.16;5099634;27;45562;-51
2023/05/22 01:24:05;;;;;;;;;16.33;15.33;;;;;17.64;56.42;100814.72;5081385;27;45416;-54
2023/05/22 01:26:52;;;;;;;;;16.33;15.67;;;;;17.61;56.49;100814.91;5098492;27;45435;-58
2023/05/22 01:29:32;;;;;;;;;16.67;16.67;;;;;17.66;56.34;100816.34;5079712;27;45421;-54
2023/05/22 01:31:59;;;;;;;;;16.00;12.67;;;;;17.67;56.26;100812.72;5098047;27;45392;-55
2023/05/22 01:34:26;;;;;;;;;19.00;16.00;;;;;17.69;56.50;100814.44;5099379;27;45377;-52
2023/05/22 01:36:53;;;;;;;;;15.67;15.00;;;;;17.66;56.18;100807.50;5097883;27;46480;-52
2023/05/22 01:39:20;;;;;;;;;14.33;14.33;;;;;17.62;56.41;100812.19;5099388;27;45667;-51
2023/05/22 01:41:45;;;;;;;;;16.00;15.00;;;;;17.66;56.27;100815.50;5099171;27;45415;-55
2023/05/22 01:44:11;;;;;;;;;16.67;15.00;;;;;17.61;56.42;100810.44;5099061;27;45401;-50
2023/05/22 01:46:36;;;;;;;;;14.00;13.67;;;;;17.60;56.24;100813.22;5098927;27;46733;-54
2023/05/22 01:49:01;;;;;;;;;15.00;13.00;;;;;17.55;56.07;100809.97;5098261;27;45551;-54
2023/05/22 01:51:56;;;;;;;;;16.67;15.33;;;;;17.54;56.17;100817.06;5099404;27;45390;-55
2023/05/22 01:54:41;;;;;;;;;14.00;14.00;;;;;17.52;56.32;100818.16;5080245;27;45642;-51
2023/05/22 01:57:18;;;;;;;;;13.67;12.00;;;;;17.53;56.02;100814.53;5092737;27;45428;-57
2023/05/22 01:59:58;;;;;;;;;14.67;14.67;;;;;17.48;56.03;100812.16;5078609;27;45355;-53
2023/05/22 02:02:25;;;;;;;;;15.00;14.00;;;;;17.46;55.71;100814.03;5082153;27;45437;-54
2023/05/22 02:04:57;;;;;;;;;12.00;12.00;;;;;17.44;55.97;100821.28;5099248;27;45477;-54
2023/05/22 02:07:26;;;;;;;;;15.33;15.33;;;;;17.45;55.58;100817.66;5098167;27;45610;-53
2023/05/22 02:09:54;;;;;;;;;16.67;15.67;;;;;17.44;55.56;100814.16;5098797;27;45442;-56
2023/05/22 02:12:21;;;;;;;;;13.00;12.33;;;;;17.42;55.56;100817.84;5098867;27;45429;-56
2023/05/22 02:14:47;;;;;;;;;15.33;14.33;;;;;17.42;55.69;100823.16;5098875;27;45594;-52
2023/05/22 02:17:12;;;;;;;;;17.00;17.00;;;;;17.42;55.90;100820.50;5098506;27;46181;-53
2023/05/22 02:19:37;;;;;;;;;17.33;16.33;;;;;17.40;55.66;100823.25;5096247;27;46201;-55
2023/05/22 02:22:03;;;;;;;;;19.67;17.67;;;;;17.38;55.63;100819.84;5078398;27;45378;-54
2023/05/22 02:24:31;;;;;;;;;13.00;13.00;;;;;17.34;55.67;100823.63;5078278;28;45398;-57
2023/05/22 02:26:57;;;;;;;;;14.33;14.33;;;;;17.26;55.75;100812.59;5077921;28;45540;-58
2023/05/22 02:29:22;;;;;;;;;20.67;15.67;;;;;17.25;55.97;100816.22;5056085;28;45435;-50
2023/05/22 02:31:47;;;;;;;;;16.33;15.33;;;;;17.20;55.71;100811.16;5075851;28;45431;-55
2023/05/22 02:34:13;;;;;;;;;17.00;13.67;;;;;17.20;55.86;100820.94;5077937;27;45350;-56
2023/05/22 02:36:39;;;;;;;;;15.00;13.33;;;;;17.21;55.79;100817.31;5077697;28;45485;-55
2023/05/22 02:39:05;;;;;;;;;16.00;14.00;;;;;17.21;56.10;100817.31;5067799;27;45364;-52
2023/05/22 02:41:30;;;;;;;;;17.67;16.33;;;;;17.24;56.28;100814.47;5056285;28;45384;-55
2023/05/22 02:43:55;;;;;;;;;15.67;15.67;;;;;17.25;55.84;100816.22;5076684;28;45401;-52
2023/05/22 02:46:21;;;;;;;;;13.67;12.67;;;;;17.22;55.69;100811.94;5077708;28;45397;-57
2023/05/22 02:48:46;;;;;;;;;14.67;14.67;;;;;17.19;56.00;100814.78;5067115;27;45406;-54
2023/05/22 02:51:11;;;;;;;;;14.00;12.67;;;;;17.18;55.90;100812.19;5057675;28;45364;-54
2023/05/22 02:53:39;;;;;;;;;19.33;19.00;;;;;17.17;56.29;100815.81;5056761;28;54204;-55
2023/05/22 02:56:09;;;;;;;;;14.67;14.00;;;;;17.15;56.09;100813.22;5057166;28;45993;-51
2023/05/22 02:58:35;;;;;;;;;13.67;13.67;;;;;17.15;55.76;100807.06;5056855;28;45323;-54
2023/05/22 03:01:02;;;;;;;;;14.33;13.33;;;;;17.13;55.80;100803.63;5067735;27;45528;-48
2023/05/22 03:03:28;;;;;;;;;16.00;14.00;;;;;17.09;55.66;100810.09;5075567;28;45398;-52
2023/05/22 03:05:57;;;;;;;;;14.67;14.67;;;;;17.10;56.12;100807.31;5069422;27;46104;-56
2023/05/22 03:08:22;;;;;;;;;15.67;14.67;;;;;17.06;55.77;100805.81;5066084;28;46292;-53
2023/05/22 03:10:48;;;;;;;;;20.00;16.33;;;;;17.08;56.15;100811.88;5057162;28;45583;-53
2023/05/22 03:13:13;;;;;;;;;15.00;14.67;;;;;17.08;55.81;100813.69;5056167;28;45532;-52
2023/05/22 03:15:38;;;;;;;;;16.67;15.67;;;;;17.06;56.17;100821.75;5056476;28;63414;-55
2023/05/22 03:18:04;;;;;;;;;19.00;18.67;;;;;17.02;55.92;100814.03;5057644;28;45602;-53
2023/05/22 03:20:30;;;;;;;;;15.33;15.33;;;;;17.00;56.54;100814.97;5057271;28;45488;-52
2023/05/22 03:22:55;;;;;;;;;16.00;16.00;;;;;16.97;56.36;100809.00;5057040;28;45286;-52
2023/05/22 03:25:20;;;;;;;;;16.67;16.00;;;;;17.00;56.47;100816.78;5056738;28;45403;-57
2023/05/22 03:27:46;;;;;;;;;14.00;14.00;;;;;16.96;56.31;100805.50;5066961;27;45464;-55
2023/05/22 03:30:12;;;;;;;;;17.33;14.67;;;;;16.96;56.50;100808.16;5097355;27;45393;-56
2023/05/22 03:32:37;;;;;;;;;16.33;16.33;;;;;16.94;56.48;100809.19;5097268;27;45358;-55
2023/05/22 03:35:03;;;;;;;;;16.67;16.00;;;;;16.89;56.42;100806.78;5097499;27;45624;-56
2023/05/22 03:37:29;;;;;;;;;12.33;12.33;;;;;16.88;56.21;100804.22;5097543;27;45456;-54
2023/05/22 03:39:54;;;;;;;;;14.67;14.33;;;;;16.87;56.21;100802.50;5096732;27;45460;-55
2023/05/22 03:42:19;;;;;;;;;14.33;14.33;;;;;16.82;56.66;100805.44;5096196;27;45627;-54
2023/05/22 03:44:45;;;;;;;;;17.33;15.00;;;;;16.79;56.76;100792.31;5092310;27;45750;-53
2023/05/22 03:47:10;;;;;;;;;18.33;17.33;;;;;16.77;56.41;100795.09;5097218;27;45481;-57
2023/05/22 03:49:36;;;;;;;;;17.00;15.00;;;;;16.69;56.32;100791.13;5097460;27;45440;-54
2023/05/22 03:52:01;;;;;;;;;16.00;15.00;;;;;16.72;56.48;100798.91;5096469;27;45495;-56
2023/05/22 03:54:27;;;;;;;;;14.33;14.33;;;;;16.62;56.91;100793.28;5095381;27;45660;-53
2023/05/22 03:56:52;;;;;;;;;20.67;16.00;;;;;16.66;57.16;100802.78;5096442;27;62031;-55
2023/05/22 03:59:17;;;;;;;;;18.00;16.00;;;;;16.69;56.82;100809.72;5096908;27;45409;-54
2023/05/22 04:01:45;;;;;;;;;16.00;16.00;;;;;16.69;56.51;100810.56;5096477;27;45486;-55
2023/05/22 04:04:11;;;;;;;;;13.00;13.00;;;;;16.71;56.47;100821.09;5090485;27;45485;-53
2023/05/22 04:06:41;;;;;;;;;19.67;17.67;;;;;16.72;56.55;100828.13;5076472;27;45445;-52
2023/05/22 04:09:09;;;;;;;;;15.33;14.33;;;;;16.73;56.39;100830.69;5078565;27;45706;-55
2023/05/22 04:11:35;;;;;;;;;20.67;15.67;;;;;16.76;56.44;100829.66;5097149;27;45365;-54
2023/05/22 04:14:05;;;;;;;;;14.67;13.67;;;;;16.76;56.38;100833.19;5095677;27;45403;-50
2023/05/22 04:16:30;;;;;;;;;14.33;14.33;;;;;16.75;56.71;100830.59;5077819;27;45485;-57
2023/05/22 04:18:56;;;;;;;;;13.33;13.33;;;;;16.73;56.31;100828.03;5096080;27;45507;-54
2023/05/22 04:21:23;;;;;;;;;16.67;16.67;;;;;16.71;56.61;100824.63;5096738;27;45585;-52
2023/05/22 04:23:48;;;;;;;;;13.33;13.33;;;;;16.72;56.83;100821.03;5078217;27;47405;-52
2023/05/22 04:26:16;;;;;;;;;15.67;15.00;;;;;16.70;56.90;100827.34;5096748;27;45367;-57
2023/05/22 04:28:44;;;;;;;;;18.00;16.67;;;;;16.63;56.51;100810.06;5094548;27;45428;-53
2023/05/22 04:31:13;;;;;;;;;17.33;15.67;;;;;16.72;57.04;100820.16;5077659;27;45629;-54
2023/05/22 04:33:38;;;;;;;;;15.33;15.33;;;;;16.74;56.61;100835.06;5081118;27;46029;-50
2023/05/22 04:36:05;;;;;;;;;17.67;17.67;;;;;16.70;56.25;100827.34;5075994;28;45379;-53
2023/05/22 04:38:35;;;;;;;;;19.67;17.33;;;;;16.72;57.08;100838.75;5076174;28;45516;-56
2023/05/22 04:41:01;;;;;;;;;15.67;14.33;;;;;16.72;56.61;100836.97;5076098;28;45420;-55
2023/05/22 04:43:26;;;;;;;;;16.00;15.00;;;;;16.72;56.78;100841.41;5077247;27;46824;-58
2023/05/22 04:45:52;;;;;;;;;17.67;17.67;;;;;16.70;57.00;100845.94;5096293;27;45463;-54
2023/05/22 04:48:18;;;;;;;;;15.33;15.33;;;;;16.62;56.68;100838.41;5096508;27;45415;-51
2023/05/22 04:50:45;;;;;;;;;18.00;16.67;;;;;16.66;57.01;100852.41;5091489;27;45433;-51
2023/05/22 04:53:11;;;;;;;;;15.00;15.00;;;;;16.62;56.61;100853.50;5085770;27;45374;-53
2023/05/22 04:55:36;;;;;;;;;15.00;14.00;;;;;16.65;57.26;100850.66;5094438;27;45404;-53
2023/05/22 04:58:02;;;;;;;;;14.67;14.67;;;;;16.61;57.06;100850.00;5096444;27;45364;-50
2023/05/22 05:00:27;;;;;;;;;14.00;14.00;;;;;16.65;57.20;100855.97;5090223;27;45389;-51
2023/05/22 05:02:53;;;;;;;;;21.00;19.33;;;;;16.63;57.26;100857.84;5084276;27;46137;-53
2023/05/22 05:05:18;;;;;;;;;17.67;15.00;;;;;16.62;57.08;100854.34;5096620;27;45442;-53
2023/05/22 05:07:43;;;;;;;;;15.00;15.00;;;;;16.68;57.35;100859.31;5080560;27;45839;-53
2023/05/22 05:10:09;;;;;;;;;16.00;16.00;;;;;16.70;57.02;100861.88;5062963;27;45602;-55
2023/05/22 05:12:34;;;;;;;;;22.00;21.00;;;;;16.68;56.84;100847.81;5094757;27;45492;-49
2023/05/22 05:15:00;;;;;;;;;19.33;19.33;;;;;16.67;57.20;100849.63;5095888;27;45518;-53
2023/05/22 05:17:26;;;;;;;;;16.33;16.33;;;;;16.70;56.86;100853.91;5096071;27;45386;-55
2023/05/22 05:19:51;;;;;;;;;18.33;16.00;;;;;16.70;56.84;100849.47;5093584;27;45548;-53
2023/05/22 05:22:16;;;;;;;;;17.67;17.33;;;;;16.72;56.75;100849.38;5093042;27;46191;-52
2023/05/22 05:24:42;;;;;;;;;16.33;16.33;;;;;16.72;57.05;100841.41;5096120;27;45416;-58
2023/05/22 05:27:07;;;;;;;;;17.67;17.67;;;;;16.73;56.94;100840.47;5094774;27;52734;-55
2023/05/22 05:29:32;;;;;;;;;15.33;15.33;;;;;16.70;57.31;100837.97;5095370;27;45567;-58
2023/05/22 05:31:58;;;;;;;;;18.33;18.33;;;;;16.71;57.30;100831.72;5085127;27;46305;-52
2023/05/22 05:34:23;;;;;;;;;17.67;15.33;;;;;16.70;57.40;100845.94;5079717;27;45405;-55
2023/05/22 05:36:48;;;;;;;;;20.00;15.33;;;;;16.66;57.28;100836.47;5077805;28;45423;-56
2023/05/22 05:39:14;;;;;;;;;15.33;15.33;;;;;16.74;57.26;100853.66;5080605;27;45535;-53
2023/05/22 05:41:39;;;;;;;;;18.33;18.33;;;;;16.72;57.19;100846.72;5089615;27;46018;-51
2023/05/22 05:44:04;;;;;;;;;14.67;14.67;;;;;16.73;57.08;100848.44;5084402;27;45438;-56
2023/05/22 05:46:29;;;;;;;;;17.33;17.33;;;;;16.70;57.47;100846.81;5087403;27;45597;-56
2023/05/22 05:48:56;;;;;;;;;17.33;17.33;;;;;16.73;57.18;100843.13;5078443;27;52103;-53
2023/05/22 05:51:22;;;;;;;;;22.67;19.67;;;;;16.74;57.54;100839.53;5089909;27;45404;-51
2023/05/22 05:53:47;;;;;;;;;17.00;16.00;;;;;16.74;57.74;100844.84;5094241;27;45445;-55
2023/05/22 05:56:13;;;;;;;;;15.33;13.67;;;;;16.70;57.51;100832.66;5099007;27;45504;-58
2023/05/22 05:58:39;;;;;;;;;21.00;19.67;;;;;16.72;57.30;100836.09;5077750;27;45593;-59
2023/05/22 06:01:04;;;;;;;;;17.00;15.67;;;;;16.73;57.48;100837.81;5085172;27;45964;-56
2023/05/22 06:03:29;;;;;;;;;15.00;15.00;;;;;16.69;57.57;100834.47;5098574;27;45457;-56
2023/05/22 06:05:56;;;;;;;;;19.00;18.33;;;;;16.70;57.78;100833.53;5080235;27;45696;-56
2023/05/22 06:08:21;;;;;;;;;17.33;17.33;;;;;16.76;57.72;100840.28;5086697;27;45659;-65
2023/05/22 06:10:47;;;;;;;;;22.00;19.00;;;;;16.74;57.34;100843.03;5092863;27;46125;-65
2023/05/22 06:13:12;;;;;;;;;13.00;13.00;;;;;16.72;57.23;100833.44;5085197;27;45501;-61
2023/05/22 06:15:38;;;;;;;;;19.67;17.00;;;;;16.75;57.64;100835.91;5086548;27;45593;-66
2023/05/22 06:18:04;;;;;;;;;20.00;19.33;;;;;16.79;57.44;100837.47;5088684;27;45518;-63
2023/05/22 06:20:29;;;;;;;;;20.67;17.33;;;;;16.81;57.73;100840.91;5098117;27;46259;-65
2023/05/22 06:22:54;;;;;;;;;21.00;19.33;;;;;16.83;57.64;100839.03;5098316;27;45660;-62
2023/05/22 06:25:20;;;;;;;;;19.33;18.00;;;;;16.88;57.60;100844.09;5098685;27;45426;-63
2023/05/22 06:27:46;;;;;;;;;17.67;16.33;;;;;16.86;57.14;100844.16;5097352;27;45401;-62
2023/05/22 06:30:12;;;;;;;;;17.33;17.33;;;;;16.91;57.41;100846.56;5098175;27;46327;-64
2023/05/22 06:32:38;;;;;;;;;18.33;18.33;;;;;16.89;57.47;100849.28;5096729;27;45533;-62
2023/05/22 06:35:04;;;;;;;;;17.33;16.67;;;;;16.90;57.51;100844.81;5098403;27;45365;-64
2023/05/22 06:37:31;;;;;;;;;15.67;15.67;;;;;16.88;57.64;100846.75;5093186;27;45548;-59
2023/05/22 06:39:57;;;;;;;;;19.33;19.33;;;;;16.94;57.59;100857.84;5097933;27;46025;-64
2023/05/22 06:42:22;;;;;;;;;17.33;17.33;;;;;16.95;57.66;100858.72;5081516;27;45822;-62
2023/05/22 06:44:47;;;;;;;;;19.33;18.33;;;;;17.00;57.27;100865.47;5059522;28;45507;-63
2023/05/22 06:47:13;;;;;;;;;18.00;17.33;;;;;16.88;57.56;100839.63;5059468;27;45508;-63
2023/05/22 06:49:38;;;;;;;;;16.00;16.00;;;;;17.06;57.12;100860.75;5079450;27;46257;-62
2023/05/22 06:52:04;;;;;;;;;22.33;19.33;;;;;17.10;57.23;100870.25;5097117;27;48799;-55
2023/05/22 06:54:29;;;;;;;;;20.67;19.33;;;;;17.11;57.16;100864.00;5095497;27;45705;-60
2023/05/22 06:56:56;;;;;;;;;22.00;20.00;;;;;17.12;56.96;100868.38;5093710;27;45378;-57
2023/05/22 06:59:21;;;;;;;;;25.67;22.00;;;;;17.18;57.23;100873.31;5071905;27;46176;-54
2023/05/22 07:01:47;;;;;;;;;18.00;16.33;;;;;17.16;57.23;100867.22;5086241;27;45468;-57
2023/05/22 07:04:12;;;;;;;;;54.67;45.00;;;;;17.23;57.17;100869.44;5095186;27;45464;-55
2023/05/22 07:06:40;;;;;;;;;21.00;18.33;;;;;17.25;56.93;100871.16;5079445;27;45651;-51
2023/05/22 07:09:07;;;;;;;;;24.67;23.33;;;;;17.29;56.87;100881.53;5087267;27;46591;-61
2023/05/22 07:11:33;;;;;;;;;18.67;18.67;;;;;17.25;56.95;100876.47;5081227;27;45607;-59
2023/05/22 07:14:00;;;;;;;;;19.67;16.33;;;;;17.23;56.65;100880.09;5094259;27;45491;-56
2023/05/22 07:16:26;;;;;;;;;22.00;22.00;;;;;17.24;56.99;100883.59;5094956;27;45664;-58
2023/05/22 07:18:51;;;;;;;;;16.67;16.67;;;;;17.28;56.95;100879.81;5092883;27;46090;-51
2023/05/22 07:21:17;;;;;;;;;19.33;18.00;;;;;17.27;57.00;100871.91;5092632;27;56432;-57
2023/05/22 07:23:42;;;;;;;;;20.00;17.67;;;;;17.26;57.39;100870.22;5097374;27;45431;-56
2023/05/22 07:26:08;;;;;;;;;19.67;19.33;;;;;17.34;57.21;100879.44;5094001;27;45417;-55
2023/05/22 07:28:34;;;;;;;;;19.00;19.00;;;;;17.35;57.08;100883.81;5096271;27;45471;-55
2023/05/22 07:30:59;;;;;;;;;21.00;20.00;;;;;17.38;56.95;100891.63;5093159;27;45582;-52
2023/05/22 07:33:25;;;;;;;;;21.33;20.33;;;;;17.42;57.01;100900.28;5091384;27;45409;-54
2023/05/22 07:35:50;;;;;;;;;16.00;15.67;;;;;17.47;57.46;100892.03;5077008;28;45500;-58
2023/05/22 07:38:16;;;;;;;;;22.33;19.33;;;;;17.54;57.00;100888.03;5086394;27;46242;-54
2023/05/22 07:40:42;;;;;;;;;22.00;19.67;;;;;17.57;56.81;100893.16;5076746;28;45410;-54
2023/05/22 07:43:09;;;;;;;;;21.33;21.33;;;;;17.60;56.76;100895.66;5076738;27;45432;-53
2023/05/22 07:45:35;;;;;;;;;22.50;21.50;;;;;17.64;56.74;100900.69;5076859;28;45659;-54
2023/05/22 07:48:02;;;;;;;;;19.33;19.33;;;;;17.69;56.71;100903.09;5076381;27;45409;-55
2023/05/22 07:50:29;;;;;;;;;21.00;20.33;;;;;17.72;56.65;100904.69;5086269;27;45417;-55
2023/05/22 07:52:55;;;;;;;;;27.00;21.67;;;;;17.73;56.41;100904.63;5092154;27;45485;-56
2023/05/22 07:55:21;;;;;;;;;20.00;18.33;;;;;17.74;56.66;100902.81;5090214;27;45474;-50
2023/05/22 07:57:46;;;;;;;;;23.00;22.00;;;;;17.76;56.55;100898.22;5080102;27;45471;-51
2023/05/22 08:00:13;;;;;;;;;22.00;21.67;;;;;17.75;56.29;100899.19;5084151;27;45505;-54
2023/05/22 08:02:42;;;;;;;;;22.33;22.33;;;;;17.79;56.89;100895.44;5058352;28;45472;-54
2023/05/22 08:05:08;;;;;;;;;21.00;18.00;;;;;17.80;56.31;100913.97;5077394;27;45587;-55
2023/05/22 08:07:33;;;;;;;;;23.00;20.33;;;;;17.83;55.99;100907.59;5074641;28;45617;-51
2023/05/22 08:10:02;;;;;;;;;19.33;19.33;;;;;17.85;56.20;100913.69;5074365;28;45462;-54
2023/05/22 08:12:27;;;;;;;;;18.33;18.00;;;;;17.87;56.05;100909.13;5077884;27;45456;-56
2023/05/22 08:14:52;;;;;;;;;22.33;20.67;;;;;17.86;56.35;100902.09;5081747;27;49196;-56
2023/05/22 08:17:18;;;;;;;;;21.33;21.33;;;;;17.85;56.57;100911.03;5075993;27;57799;-55
2023/05/22 08:19:43;;;;;;;;;21.67;20.00;;;;;17.84;56.68;100918.16;5091097;27;53991;-58
2023/05/22 08:22:08;;;;;;;;;23.00;21.00;;;;;17.86;56.50;100918.06;5096375;27;45411;-56
2023/05/22 08:24:33;;;;;;;;;19.67;18.67;;;;;17.88;56.59;100914.34;5093625;27;54705;-58
2023/05/22 08:26:59;;;;;;;;;23.33;23.33;;;;;17.93;56.55;100915.88;5075476;28;56931;-56
2023/05/22 08:29:25;;;;;;;;;21.33;20.67;;;;;17.97;56.45;100920.91;5075439;28;45394;-57
2023/05/22 08:31:51;;;;;;;;;24.00;21.33;;;;;18.02;56.73;100920.63;5080329;27;45616;-57
2023/05/22 08:34:16;;;;;;;;;24.67;23.33;;;;;18.03;56.66;100909.91;5096199;27;45426;-56
2023/05/22 08:36:41;;;;;;;;;23.67;21.00;;;;;18.07;56.48;100921.22;5095636;27;45669;-50
2023/05/22 08:39:08;;;;;;;;;21.67;21.33;;;;;18.07;56.77;100923.88;5095542;27;45456;-58
2023/05/22 08:41:34;;;;;;;;;26.00;24.00;;;;;18.02;56.14;100916.16;5096121;27;45393;-53
2023/05/22 08:43:59;;;;;;;;;24.67;21.67;;;;;18.07;56.35;100926.53;5093553;27;45342;-56
2023/05/22 08:46:28;;;;;;;;;22.33;22.33;;;;;18.05;56.36;100924.00;5078274;27;45885;-54
2023/05/22 08:48:57;;;;;;;;;23.67;23.00;;;;;18.01;56.95;100919.78;5096042;27;45448;-57
2023/05/22 08:51:27;;;;;;;;;25.00;20.33;;;;;18.02;56.59;100918.81;5095306;27;45491;-58
2023/05/22 08:53:55;;;;;;;;;21.33;20.00;;;;;18.04;56.84;100932.06;5095882;27;45512;-58
2023/05/22 08:56:21;;;;;;;;;23.33;21.00;;;;;18.06;57.00;100927.50;5094324;27;45938;-49
2023/05/22 08:58:46;;;;;;;;;26.00;21.33;;;;;18.07;56.67;100919.41;5087103;27;45417;-49
2023/05/22 09:01:13;;;;;;;;;24.00;22.00;;;;;18.14;56.52;100919.03;5095808;27;45402;-51
2023/05/22 09:03:38;;;;;;;;;23.67;18.33;;;;;18.17;56.90;100919.69;5096050;27;45323;-49
2023/05/22 09:06:09;;;;;;;;;21.33;21.00;;;;;18.18;56.83;100921.41;5085049;27;56523;-51
2023/05/22 09:08:35;;;;;;;;;19.33;18.00;;;;;18.20;56.73;100923.97;5076314;27;45701;-48
2023/05/22 09:11:01;;;;;;;;;26.33;22.00;;;;;18.27;56.49;100926.16;5075244;27;45558;-62
2023/05/22 09:13:28;;;;;;;;;18.33;18.33;;;;;18.29;56.73;100929.56;5096383;27;45718;-60
2023/05/22 09:23:39;;;;;;;;;19.67;18.00;;;;;18.46;56.13;100939.19;2156372;26;46071;-58
2023/05/22 09:26:05;;;;;;;;;22.33;20.67;;;;;18.51;56.01;100938.88;5017673;28;45858;-59
2023/05/22 09:28:35;;;;;;;;;19.67;19.00;;;;;18.55;56.53;100945.72;5016824;28;45379;-58
2023/05/22 09:31:02;;;;;;;;;26.67;24.00;;;;;18.54;56.32;100936.91;5018736;28;45326;-59
2023/05/22 09:33:28;;;;;;;;;23.00;21.67;;;;;18.63;56.58;100939.94;5018511;28;45497;-59
2023/05/22 09:35:54;;;;;;;;;21.00;19.67;;;;;18.67;55.88;100938.75;5018231;28;46399;-59
2023/05/22 09:38:26;;;;;;;;;24.33;21.33;;;;;18.74;56.61;100940.97;5017998;28;45418;-58
2023/05/22 09:40:53;;;;;;;;;25.33;24.67;;;;;18.73;56.03;100935.72;5018358;28;45597;-59
2023/05/22 09:43:20;;;;;;;;;25.33;22.67;;;;;18.78;55.62;100923.00;5018451;28;45434;-55
2023/05/22 09:45:45;;;;;;;;;21.00;21.00;;;;;18.87;56.14;100937.53;5018276;28;45446;-59
2023/05/22 09:48:11;;;;;;;;;23.33;23.33;;;;;18.88;56.24;100936.56;5012929;28;45428;-56
2023/05/22 09:50:38;;;;;;;;;26.00;26.00;;;;;18.92;55.78;100935.44;5037723;28;45398;-57
2023/05/22 09:53:04;;;;;;;;;24.33;23.33;;;;;18.96;55.86;100928.94;5030052;28;45639;-56
2023/05/22 09:55:31;;;;;;;;;25.67;23.00;;;;;18.98;56.04;100916.34;5025072;28;45383;-59
2023/05/22 09:57:57;;;;;;;;;23.00;22.00;;;;;19.01;55.65;100917.97;5028085;28;45788;-58
2023/05/22 10:00:24;;;;;;;;;23.00;22.00;;;;;19.06;55.70;100924.72;5027464;28;45459;-61
2023/05/22 10:02:55;;;;;;;;;21.67;21.67;;;;;19.10;56.17;100920.00;5035046;28;45439;-61
2023/05/22 10:05:23;;;;;;;;;32.67;30.67;;;;;19.14;55.61;100922.38;5037550;28;46210;-62
2023/05/22 10:07:53;;;;;;;;;30.00;27.33;;;;;19.22;55.82;100913.88;5037293;28;45485;-63
2023/05/22 10:10:21;;;;;;;;;25.00;24.00;;;;;19.24;55.77;100911.13;5037587;28;45515;-63
2023/05/22 10:12:55;;;;;;;;;24.33;22.67;;;;;19.26;55.73;100909.19;5035768;28;45481;-64
2023/05/22 10:15:21;;;;;;;;;20.00;20.00;;;;;19.29;55.64;100903.66;5037522;28;45438;-65
2023/05/22 10:17:47;;;;;;;;;23.00;22.67;;;;;19.33;55.32;100905.16;5035956;28;45439;-65
2023/05/22 10:20:13;;;;;;;;;25.33;21.33;;;;;19.40;55.49;100910.00;5037478;28;45466;-65
2023/05/22 10:22:40;;;;;;;;;22.33;20.67;;;;;19.39;55.78;100899.41;5035374;28;45563;-64
2023/05/22 10:25:06;;;;;;;;;27.00;23.33;;;;;19.41;55.87;100902.84;5037341;28;46330;-64
2023/05/22 10:27:31;;;;;;;;;22.33;21.67;;;;;19.48;55.85;100905.94;5037279;28;45466;-64
2023/05/22 10:30:25;;;;;;;;;24.00;24.00;;;;;19.49;55.56;100905.84;5030004;28;45356;-64
2023/05/22 10:33:02;;;;;;;;;27.00;24.67;;;;;19.49;55.61;100911.19;5026436;28;45485;-62
2023/05/22 10:35:36;;;;;;;;;26.00;24.00;;;;;19.51;56.02;100909.28;5034947;28;46477;-64
2023/05/22 10:38:25;;;;;;;;;26.67;25.33;;;;;19.53;56.18;100906.47;4997440;28;45400;-62
2023/05/22 10:40:50;;;;;;;;;25.00;24.00;;;;;19.55;56.09;100905.41;5002610;28;45489;-63
2023/05/22 10:43:16;;;;;;;;;25.67;24.33;;;;;19.54;55.78;100889.53;5037291;28;45587;-63
2023/05/22 10:45:45;;;;;;;;;25.33;25.33;;;;;19.48;56.00;100882.81;5037183;28;46868;-63
2023/05/22 10:48:11;;;;;;;;;24.33;24.33;;;;;19.60;56.01;100903.28;5037168;28;45385;-60
2023/05/22 10:50:38;;;;;;;;;26.33;24.00;;;;;19.60;55.95;100899.78;5032421;28;45383;-58
2023/05/22 10:53:25;;;;;;;;;25.67;24.67;;;;;19.65;56.19;100898.50;5036694;28;45389;-58
2023/05/22 10:55:55;;;;;;;;;24.33;22.33;;;;;19.64;56.37;100888.78;5020406;28;45441;-51
2023/05/22 10:58:31;;;;;;;;;23.33;23.33;;;;;19.71;56.19;100893.72;5017472;28;45469;-54
2023/05/22 11:01:15;;;;;;;;;30.67;27.67;;;;;19.76;55.78;100896.94;5013827;28;45392;-54
2023/05/22 11:04:03;;;;;;;;;33.00;28.00;;;;;19.80;56.21;100887.75;5011654;28;45484;-55
2023/05/22 11:06:36;;;;;;;;;30.33;23.67;;;;;19.82;55.66;100885.84;5019757;28;45567;-58
2023/05/22 11:09:25;;;;;;;;;30.33;28.33;;;;;19.86;56.05;100882.00;5036431;28;45545;-58
2023/05/22 11:12:27;;;;;;;;;27.33;27.33;;;;;19.92;55.59;100886.91;5023154;28;45313;-56
2023/05/22 11:14:57;;;;;;;;;32.33;27.00;;;;;19.92;55.60;100881.56;4952682;28;45464;-55
2023/05/22 11:17:29;;;;;;;;;30.67;28.00;;;;;19.99;55.93;100890.88;5006725;28;47565;-55